createdAt,value
2024-04-30T00:00:38.244Z,8.77
2024-04-30T00:03:05.762Z,10.27
2024-04-30T00:05:33.070Z,7.60
2024-04-30T00:08:00.454Z,8.80
2024-04-30T00:10:30.290Z,8.48
2024-04-30T00:12:57.670Z,11.80
2024-04-30T00:15:24.878Z,5.18
2024-04-30T00:17:52.140Z,5.68
2024-04-30T00:20:19.240Z,3.70
2024-04-30T00:22:46.322Z,5.60
2024-04-30T00:25:13.736Z,4.95
2024-04-30T00:27:42.683Z,4.70
2024-04-30T00:30:11.284Z,6.35
2024-04-30T00:32:38.438Z,8.55
2024-04-30T00:35:05.890Z,5.57
2024-04-30T00:37:33.048Z,6.93
2024-04-30T00:40:00.271Z,8.07
2024-04-30T00:42:27.459Z,9.27
2024-04-30T00:44:54.519Z,4.28
2024-04-30T00:47:21.983Z,8.07
2024-04-30T00:49:50.101Z,8.30
2024-04-30T00:52:19.979Z,7.57
2024-04-30T00:54:47.307Z,6.78
2024-04-30T00:57:15.633Z,5.50
2024-04-30T00:59:43.896Z,6.20
2024-04-30T01:02:15.941Z,7.55
2024-04-30T01:04:43.115Z,5.20
2024-04-30T01:07:10.491Z,5.03
2024-04-30T01:09:37.668Z,6.68
2024-04-30T01:12:05.184Z,7.57
2024-04-30T01:14:32.197Z,6.25
2024-04-30T01:16:59.312Z,7.15
2024-04-30T01:19:26.444Z,6.57
2024-04-30T01:21:53.528Z,6.22
2024-04-30T01:24:20.631Z,6.63
2024-04-30T01:26:47.760Z,6.93
2024-04-30T01:29:14.765Z,7.60
2024-04-30T01:31:43.933Z,7.30
2024-04-30T01:34:10.961Z,6.32
2024-04-30T01:36:38.119Z,5.93
2024-04-30T01:39:05.190Z,8.48
2024-04-30T01:41:32.238Z,4.95
2024-04-30T01:43:59.320Z,7.57
2024-04-30T01:46:26.933Z,6.82
2024-04-30T01:48:53.989Z,4.20
2024-04-30T01:51:21.063Z,5.28
2024-04-30T01:53:48.102Z,5.22
2024-04-30T01:56:15.188Z,4.53
2024-04-30T01:58:42.241Z,6.57
2024-04-30T02:01:09.457Z,4.00
2024-04-30T02:03:36.642Z,4.90
2024-04-30T02:06:04.046Z,2.90
2024-04-30T02:08:31.067Z,5.75
2024-04-30T02:10:58.266Z,2.72
2024-04-30T02:13:25.401Z,4.82
2024-04-30T02:15:52.472Z,4.28
2024-04-30T02:18:19.513Z,2.88
2024-04-30T02:20:48.835Z,3.83
2024-04-30T02:23:15.897Z,7.00
2024-04-30T02:25:42.901Z,3.38
2024-04-30T02:28:09.993Z,5.65
2024-04-30T02:30:55.512Z,5.07
2024-04-30T02:33:41.024Z,3.58
2024-04-30T02:36:11.680Z,3.92
2024-04-30T02:38:38.762Z,5.30
2024-04-30T02:41:08.009Z,4.35
2024-04-30T02:43:35.184Z,4.28
2024-04-30T02:46:02.336Z,6.97
2024-04-30T02:48:29.618Z,7.70
2024-04-30T02:50:56.734Z,5.18
2024-04-30T02:53:23.746Z,3.72
2024-04-30T02:55:50.834Z,6.50
2024-04-30T02:58:18.059Z,5.53
2024-04-30T03:00:45.104Z,4.47
2024-04-30T03:03:12.257Z,6.75
2024-04-30T03:05:39.394Z,10.82
2024-04-30T03:08:06.652Z,4.85
2024-04-30T03:10:33.779Z,7.60
2024-04-30T03:13:00.962Z,7.82
2024-04-30T03:15:28.006Z,5.50
2024-04-30T03:17:55.706Z,8.52
2024-04-30T03:20:22.893Z,6.90
2024-04-30T03:22:50.047Z,9.13
2024-04-30T03:25:17.254Z,9.75
2024-04-30T03:27:44.558Z,8.02
2024-04-30T03:30:11.716Z,7.53
2024-04-30T03:32:41.589Z,8.40
2024-04-30T03:35:08.838Z,5.68
2024-04-30T03:37:35.961Z,7.10
2024-04-30T03:40:03.880Z,6.38
2024-04-30T03:42:31.042Z,5.25
2024-04-30T03:44:58.089Z,8.10
2024-04-30T03:47:31.224Z,6.65
2024-04-30T03:50:01.462Z,6.75
2024-04-30T03:52:29.236Z,9.18
2024-04-30T03:54:56.339Z,6.38
2024-04-30T03:57:23.507Z,7.50
2024-04-30T03:59:50.524Z,8.93
2024-04-30T04:02:17.977Z,6.95
2024-04-30T04:04:45.055Z,5.57
2024-04-30T04:07:12.130Z,5.10
2024-04-30T04:09:39.126Z,7.28
2024-04-30T04:12:25.003Z,9.40
2024-04-30T04:14:52.638Z,6.47
2024-04-30T04:17:20.476Z,7.30
2024-04-30T04:19:48.354Z,7.00
2024-04-30T04:22:15.592Z,6.32
2024-04-30T04:24:42.687Z,10.80
2024-04-30T04:27:09.727Z,6.13
2024-04-30T04:29:38.982Z,7.28
2024-04-30T04:32:07.420Z,7.35
2024-04-30T04:34:34.678Z,7.45
2024-04-30T04:37:01.758Z,8.40
2024-04-30T04:39:28.782Z,12.25
2024-04-30T04:41:55.768Z,10.32
2024-04-30T04:44:24.806Z,7.95
2024-04-30T04:46:51.823Z,5.72
2024-04-30T04:49:18.825Z,6.72
2024-04-30T04:51:45.815Z,11.25
2024-04-30T04:54:12.730Z,14.23
2024-04-30T04:56:39.687Z,10.65
2024-04-30T04:59:06.634Z,7.13
2024-04-30T05:01:33.581Z,12.75
2024-04-30T05:04:00.697Z,6.95
2024-04-30T05:06:27.821Z,7.70
2024-04-30T05:08:54.747Z,6.20
2024-04-30T05:11:21.801Z,7.43
2024-04-30T05:13:48.951Z,12.57
2024-04-30T05:16:15.891Z,10.45
2024-04-30T05:18:44.202Z,9.60
2024-04-30T05:21:11.222Z,11.63
2024-04-30T05:23:38.195Z,10.43
2024-04-30T05:26:05.889Z,8.32
2024-04-30T05:28:33.002Z,10.23
2024-04-30T05:31:00.003Z,13.63
2024-04-30T05:33:28.895Z,21.42
2024-04-30T05:35:55.963Z,11.93
2024-04-30T05:38:25.854Z,17.52
2024-04-30T05:40:53.035Z,10.48
2024-04-30T05:43:20.199Z,11.20
2024-04-30T05:45:47.536Z,15.48
2024-04-30T05:48:14.673Z,8.68
2024-04-30T05:50:41.659Z,7.78
2024-04-30T05:53:11.330Z,6.20
2024-04-30T05:55:38.403Z,9.43
2024-04-30T05:58:05.414Z,11.93
2024-04-30T06:00:32.405Z,9.10
2024-04-30T06:03:04.016Z,8.00
2024-04-30T06:05:32.270Z,9.93
2024-04-30T06:07:59.309Z,12.98
2024-04-30T06:10:26.485Z,8.60
2024-04-30T06:12:53.647Z,8.90
2024-04-30T06:15:20.621Z,7.78
2024-04-30T06:17:47.683Z,10.82
2024-04-30T06:20:14.744Z,9.25
2024-04-30T06:22:41.787Z,9.40
2024-04-30T06:25:08.756Z,6.45
2024-04-30T06:27:35.731Z,8.10
2024-04-30T06:30:02.743Z,11.73
2024-04-30T06:32:29.720Z,11.48
2024-04-30T06:34:56.729Z,9.25
2024-04-30T06:37:23.747Z,9.00
2024-04-30T06:39:56.691Z,8.27
2024-04-30T06:42:23.613Z,8.50
2024-04-30T06:44:50.822Z,5.93
2024-04-30T06:47:17.795Z,10.68
2024-04-30T06:49:46.519Z,8.65
2024-04-30T06:52:13.623Z,11.98
2024-04-30T06:54:40.576Z,6.18
2024-04-30T06:57:07.485Z,8.75
2024-04-30T06:59:34.411Z,7.55
2024-04-30T07:02:01.363Z,7.18
2024-04-30T07:04:30.625Z,9.77
2024-04-30T07:07:00.108Z,9.70
2024-04-30T07:09:29.154Z,4.10
2024-04-30T07:11:56.110Z,3.80
2024-04-30T07:14:23.198Z,7.03
2024-04-30T07:16:56.772Z,6.65
2024-04-30T07:19:29.937Z,3.60
2024-04-30T07:21:56.913Z,9.98
2024-04-30T07:24:23.838Z,3.38
2024-04-30T07:26:50.778Z,4.90
2024-04-30T07:29:17.752Z,5.78
2024-04-30T07:31:44.721Z,3.75
2024-04-30T07:34:11.740Z,8.15
2024-04-30T07:36:38.741Z,8.18
2024-04-30T07:39:07.952Z,4.45
2024-04-30T07:41:34.894Z,5.03
2024-04-30T07:44:01.954Z,3.05
2024-04-30T07:46:28.971Z,5.45
2024-04-30T07:48:55.934Z,2.13
2024-04-30T07:51:23.075Z,3.78
2024-04-30T07:53:52.717Z,4.03
2024-04-30T07:56:19.732Z,4.68
2024-04-30T07:58:46.767Z,2.47
2024-04-30T08:01:13.984Z,4.63
2024-04-30T08:03:42.812Z,1.95
2024-04-30T08:06:14.775Z,3.95
2024-04-30T08:08:48.054Z,1.92
2024-04-30T08:11:15.822Z,4.47
2024-04-30T08:13:45.470Z,3.13
2024-04-30T08:16:13.281Z,1.60
2024-04-30T08:18:40.621Z,1.98
2024-04-30T08:21:08.086Z,3.63
2024-04-30T08:23:38.267Z,9.82
2024-04-30T08:26:06.980Z,2.25
2024-04-30T08:28:39.825Z,4.32
2024-04-30T08:31:07.611Z,3.03
2024-04-30T08:33:34.643Z,4.07
2024-04-30T08:36:01.759Z,3.38
2024-04-30T08:38:28.909Z,2.90
2024-04-30T08:40:56.158Z,4.72
2024-04-30T08:43:23.181Z,3.22
2024-04-30T08:45:51.227Z,4.80
2024-04-30T08:48:20.235Z,6.75
2024-04-30T08:50:51.473Z,4.38
2024-04-30T08:53:21.355Z,2.42
2024-04-30T08:55:48.695Z,3.42
2024-04-30T08:58:15.732Z,4.55
2024-04-30T09:00:42.948Z,4.22
2024-04-30T09:03:10.366Z,8.70
2024-04-30T09:05:37.459Z,3.03
2024-04-30T09:08:04.956Z,5.50
2024-04-30T09:10:32.173Z,4.70
2024-04-30T09:12:59.800Z,4.95
2024-04-30T09:15:26.944Z,3.08
2024-04-30T09:17:54.631Z,6.78
2024-04-30T09:20:21.734Z,3.50
2024-04-30T09:22:52.825Z,4.78
2024-04-30T09:25:35.933Z,3.70
2024-04-30T09:28:13.089Z,3.90
2024-04-30T09:30:43.043Z,4.43
2024-04-30T09:33:11.393Z,4.32
2024-04-30T09:35:38.584Z,3.50
2024-04-30T09:38:08.895Z,2.83
2024-04-30T09:40:37.249Z,4.38
2024-04-30T09:43:05.042Z,2.63
2024-04-30T09:45:34.771Z,6.25
2024-04-30T09:48:09.776Z,2.25
2024-04-30T09:50:38.635Z,3.40
2024-04-30T09:53:07.918Z,3.25
2024-04-30T09:55:37.683Z,1.38
2024-04-30T09:58:06.769Z,1.83
2024-04-30T10:00:33.793Z,2.80
2024-04-30T10:03:05.268Z,5.03
2024-04-30T10:05:36.322Z,2.40
2024-04-30T10:08:04.852Z,2.35
2024-04-30T10:10:33.043Z,3.75
2024-04-30T10:13:23.959Z,2.38
2024-04-30T10:15:51.334Z,3.22
2024-04-30T10:18:27.165Z,2.40
2024-04-30T10:20:54.145Z,2.67
2024-04-30T10:23:31.319Z,2.17
2024-04-30T10:26:05.734Z,1.55
2024-04-30T10:28:34.202Z,3.05
2024-04-30T10:31:11.349Z,2.95
2024-04-30T10:33:39.171Z,1.42
2024-04-30T10:36:09.575Z,3.80
2024-04-30T10:38:36.836Z,6.22
2024-04-30T10:41:05.454Z,2.08
2024-04-30T10:43:33.358Z,1.67
2024-04-30T10:46:11.368Z,3.92
2024-04-30T10:48:38.471Z,1.88
2024-04-30T10:51:05.693Z,4.18
2024-04-30T10:53:33.602Z,3.45
2024-04-30T10:56:03.264Z,4.97
2024-04-30T10:58:30.348Z,6.55
2024-04-30T11:00:59.656Z,4.30
2024-04-30T11:03:26.840Z,1.40
2024-04-30T11:06:01.242Z,3.90
2024-04-30T11:08:28.832Z,4.60
2024-04-30T11:11:07.834Z,5.07
2024-04-30T11:13:34.976Z,3.50
2024-04-30T11:16:08.082Z,5.53
2024-04-30T11:18:41.015Z,3.40
2024-04-30T11:21:08.136Z,4.25
2024-04-30T11:23:35.112Z,4.88
2024-04-30T11:26:02.126Z,5.07
2024-04-30T11:28:29.177Z,2.45
2024-04-30T11:30:58.423Z,3.05
2024-04-30T11:33:27.038Z,2.33
2024-04-30T11:35:55.366Z,4.10
2024-04-30T11:38:24.854Z,1.75
2024-04-30T11:40:54.059Z,2.42
2024-04-30T11:43:21.200Z,2.28
2024-04-30T11:45:48.397Z,1.55
2024-04-30T11:48:15.664Z,1.17
2024-04-30T11:50:42.711Z,2.58
2024-04-30T11:53:09.777Z,2.67
2024-04-30T11:55:36.869Z,2.42
2024-04-30T11:58:04.985Z,3.63
2024-04-30T12:00:32.319Z,5.85
2024-04-30T12:02:59.401Z,1.92
2024-04-30T12:05:29.412Z,2.15
2024-04-30T12:07:56.546Z,3.22
2024-04-30T12:10:24.261Z,3.20
2024-04-30T12:12:52.199Z,3.00
2024-04-30T12:15:19.649Z,13.73
2024-04-30T12:17:46.917Z,3.30
2024-04-30T12:20:14.263Z,2.78
2024-04-30T12:22:41.467Z,2.40
2024-04-30T12:25:11.385Z,1.52
2024-04-30T12:27:41.158Z,1.20
2024-04-30T12:30:11.205Z,2.78
2024-04-30T12:32:38.248Z,2.17
2024-04-30T12:35:05.583Z,1.85
2024-04-30T12:37:32.611Z,1.50
2024-04-30T12:39:59.706Z,3.22
2024-04-30T12:42:26.787Z,2.47
2024-04-30T12:44:53.755Z,1.50
2024-04-30T12:47:20.767Z,2.30
2024-04-30T12:49:47.899Z,2.67
2024-04-30T12:52:15.075Z,2.08
2024-04-30T12:54:42.063Z,1.45
2024-04-30T12:57:09.000Z,2.97
2024-04-30T12:59:35.979Z,5.53
2024-04-30T13:02:03.084Z,4.65
2024-04-30T13:04:39.833Z,3.80
2024-04-30T13:07:07.016Z,2.10
2024-04-30T13:09:34.387Z,1.80
2024-04-30T13:12:01.421Z,1.95
2024-04-30T13:14:28.475Z,4.63
2024-04-30T13:16:55.456Z,1.70
2024-04-30T13:19:22.439Z,2.15
2024-04-30T13:21:51.196Z,3.35
2024-04-30T13:24:18.415Z,1.30
2024-04-30T13:26:47.552Z,2.65
2024-04-30T13:29:14.553Z,5.13
2024-04-30T13:31:45.434Z,5.70
2024-04-30T13:34:12.875Z,3.67
2024-04-30T13:36:40.159Z,3.35
2024-04-30T13:39:07.769Z,3.20
2024-04-30T13:41:34.795Z,3.90
2024-04-30T13:44:01.833Z,3.15
2024-04-30T13:46:31.318Z,2.17
2024-04-30T13:48:58.329Z,1.95
2024-04-30T13:51:25.341Z,3.20
2024-04-30T13:53:52.352Z,1.65
2024-04-30T13:56:19.517Z,1.80
2024-04-30T13:58:47.355Z,5.63
2024-04-30T14:01:20.297Z,3.78
2024-04-30T14:03:47.382Z,1.90
2024-04-30T14:06:16.104Z,1.52
2024-04-30T14:08:43.330Z,3.83
2024-04-30T14:11:10.571Z,2.65
2024-04-30T14:13:37.646Z,3.70
2024-04-30T14:16:04.915Z,1.42
2024-04-30T14:18:34.940Z,2.65
2024-04-30T14:21:01.991Z,3.67
2024-04-30T14:23:29.615Z,1.98
2024-04-30T14:25:57.676Z,4.03
2024-04-30T14:28:25.680Z,5.40
2024-04-30T14:30:52.900Z,3.30
2024-04-30T14:33:20.134Z,1.77
2024-04-30T14:36:05.516Z,2.45
2024-04-30T14:38:37.523Z,4.00
2024-04-30T14:41:04.743Z,2.65
2024-04-30T14:43:31.717Z,2.70
2024-04-30T14:45:58.720Z,1.73
2024-04-30T14:48:25.813Z,4.35
2024-04-30T14:50:54.009Z,1.35
2024-04-30T14:53:20.989Z,1.60
2024-04-30T14:55:48.339Z,2.88
2024-04-30T14:58:15.614Z,3.78
2024-04-30T15:00:42.619Z,2.90
2024-04-30T15:03:09.721Z,2.08
2024-04-30T15:05:37.395Z,3.28
2024-04-30T15:08:04.630Z,1.50
2024-04-30T15:10:32.065Z,3.30
2024-04-30T15:12:59.036Z,1.50
2024-04-30T15:15:25.987Z,1.55
2024-04-30T15:17:53.010Z,2.22
2024-04-30T15:20:19.938Z,3.17
2024-04-30T15:22:46.925Z,3.15
2024-04-30T15:25:14.153Z,4.30
2024-04-30T15:27:41.130Z,1.85
2024-04-30T15:30:08.692Z,2.85
2024-04-30T15:32:35.785Z,1.50
2024-04-30T15:35:03.021Z,2.95
2024-04-30T15:37:29.973Z,5.47
2024-04-30T15:39:57.090Z,2.13
2024-04-30T15:42:24.989Z,4.70
2024-04-30T15:44:51.982Z,3.53
2024-04-30T15:47:18.989Z,3.97
2024-04-30T15:49:45.998Z,3.20
2024-04-30T15:52:13.074Z,3.92
2024-04-30T15:54:40.186Z,2.58
2024-04-30T15:57:07.131Z,2.63
2024-04-30T15:59:35.749Z,1.98
2024-04-30T16:02:02.872Z,2.28
2024-04-30T16:04:30.090Z,3.58
2024-04-30T16:06:57.073Z,2.13
2024-04-30T16:09:24.040Z,2.28
2024-04-30T16:11:51.081Z,1.35
2024-04-30T16:14:18.354Z,3.35
2024-04-30T16:16:45.455Z,3.75
2024-04-30T16:19:15.778Z,1.20
2024-04-30T16:21:44.118Z,1.90
2024-04-30T16:24:11.636Z,3.60
2024-04-30T16:26:42.188Z,2.67
2024-04-30T16:29:11.207Z,2.97
2024-04-30T16:31:38.486Z,2.28
2024-04-30T16:34:05.970Z,3.42
2024-04-30T16:36:33.166Z,1.35
2024-04-30T16:39:00.122Z,1.67
2024-04-30T16:41:27.188Z,2.85
2024-04-30T16:43:54.266Z,5.07
2024-04-30T16:46:21.282Z,3.85
2024-04-30T16:48:48.443Z,4.18
2024-04-30T16:51:15.499Z,3.70
2024-04-30T16:53:43.542Z,3.65
2024-04-30T16:56:11.002Z,1.40
2024-04-30T16:58:38.542Z,3.67
2024-04-30T17:01:05.617Z,2.35
2024-04-30T17:03:34.281Z,4.15
2024-04-30T17:06:06.285Z,2.63
2024-04-30T17:08:33.238Z,9.23
2024-04-30T17:11:00.250Z,4.60
2024-04-30T17:13:27.282Z,2.70
2024-04-30T17:15:57.276Z,5.65
2024-04-30T17:18:24.346Z,5.35
2024-04-30T17:20:52.159Z,4.80
2024-04-30T17:23:19.146Z,3.13
2024-04-30T17:25:46.066Z,2.40
2024-04-30T17:28:17.444Z,2.22
2024-04-30T17:30:44.406Z,3.53
2024-04-30T17:33:11.323Z,5.03
2024-04-30T17:35:38.346Z,6.68
2024-04-30T17:38:08.398Z,4.15
2024-04-30T17:40:35.372Z,2.97
2024-04-30T17:43:02.434Z,3.35
2024-04-30T17:45:29.492Z,5.82
2024-04-30T17:47:56.803Z,3.40
2024-04-30T17:50:23.968Z,1.85
2024-04-30T17:52:55.245Z,4.65
2024-04-30T17:55:22.234Z,4.60
2024-04-30T17:57:49.217Z,4.70
2024-04-30T18:00:16.390Z,3.42
2024-04-30T18:02:43.407Z,12.88
2024-04-30T18:05:10.483Z,2.13
2024-04-30T18:07:37.477Z,5.57
2024-04-30T18:10:04.772Z,3.30
2024-04-30T18:12:31.742Z,2.60
2024-04-30T18:15:01.712Z,6.75
2024-04-30T18:17:28.693Z,5.20
2024-04-30T18:19:55.650Z,4.20
2024-04-30T18:22:22.775Z,3.20
2024-04-30T18:24:49.805Z,6.30
2024-04-30T18:27:18.050Z,3.20
2024-04-30T18:29:45.090Z,4.15
2024-04-30T18:32:12.079Z,5.43
2024-04-30T18:34:39.106Z,6.20
2024-04-30T18:37:08.181Z,2.63
2024-04-30T18:39:35.232Z,3.13
2024-04-30T18:42:02.312Z,3.45
2024-04-30T18:44:30.890Z,3.95
2024-04-30T18:46:59.267Z,3.90
2024-04-30T18:49:26.403Z,4.15
2024-04-30T18:51:53.716Z,7.43
2024-04-30T18:54:20.934Z,5.13
2024-04-30T18:56:50.174Z,7.18
2024-04-30T18:59:18.765Z,3.47
2024-04-30T19:01:48.915Z,6.30
2024-04-30T19:04:15.963Z,3.95
2024-04-30T19:06:43.225Z,2.95
2024-04-30T19:09:10.367Z,3.00
2024-04-30T19:11:37.327Z,3.67
2024-04-30T19:14:04.364Z,2.35
2024-04-30T19:16:31.315Z,1.95
2024-04-30T19:19:00.554Z,1.83
2024-04-30T19:21:27.625Z,5.43
2024-04-30T19:23:54.634Z,6.65
2024-04-30T19:26:21.594Z,3.17
2024-04-30T19:28:51.167Z,15.60
2024-04-30T19:31:20.776Z,4.15
2024-04-30T19:33:48.306Z,2.38
2024-04-30T19:36:19.747Z,3.65
2024-04-30T19:38:47.720Z,3.47
2024-04-30T19:41:15.647Z,4.60
2024-04-30T19:43:43.098Z,3.08
2024-04-30T19:46:20.922Z,6.55
2024-04-30T19:48:50.988Z,5.72
2024-04-30T19:51:21.990Z,5.55
2024-04-30T19:53:53.468Z,6.38
2024-04-30T19:56:23.850Z,2.45
2024-04-30T19:58:57.168Z,4.82
2024-04-30T20:01:29.048Z,3.83
2024-04-30T20:04:00.737Z,7.47
2024-04-30T20:06:28.204Z,4.40
2024-04-30T20:08:55.318Z,3.67
2024-04-30T20:11:25.026Z,6.85
2024-04-30T20:13:53.342Z,2.17
2024-04-30T20:16:20.408Z,2.95
2024-04-30T20:18:47.585Z,6.80
2024-04-30T20:21:15.596Z,8.68
2024-04-30T20:23:43.085Z,3.50
2024-04-30T20:26:12.330Z,2.47
2024-04-30T20:28:42.088Z,7.60
2024-04-30T20:31:09.095Z,6.38
2024-04-30T20:33:36.413Z,6.47
2024-04-30T20:36:03.668Z,3.55
2024-04-30T20:38:32.574Z,2.88
2024-04-30T20:40:59.583Z,4.85
2024-04-30T20:43:26.576Z,7.90
2024-04-30T20:45:53.543Z,6.35
2024-04-30T20:48:20.753Z,5.53
2024-04-30T20:50:47.784Z,3.85
2024-04-30T20:53:14.823Z,3.00
2024-04-30T20:55:45.387Z,4.45
2024-04-30T20:58:12.736Z,2.97
2024-04-30T21:00:39.773Z,3.63
2024-04-30T21:03:06.826Z,4.85
2024-04-30T21:05:33.920Z,5.90
2024-04-30T21:08:01.541Z,2.15
2024-04-30T21:10:28.491Z,2.83
2024-04-30T21:12:58.905Z,4.70
2024-04-30T21:15:25.983Z,5.97
2024-04-30T21:17:55.815Z,3.88
2024-04-30T21:20:22.817Z,5.65
2024-04-30T21:22:49.779Z,4.88
2024-04-30T21:25:16.674Z,4.32
2024-04-30T21:27:43.651Z,3.15
2024-04-30T21:30:11.444Z,6.07
2024-04-30T21:32:38.426Z,7.30
2024-04-30T21:35:13.037Z,5.30
2024-04-30T21:37:40.671Z,8.15
2024-04-30T21:40:08.960Z,5.82
2024-04-30T21:42:36.245Z,9.07
2024-04-30T21:45:06.229Z,9.52
2024-04-30T21:47:33.219Z,5.45
2024-04-30T21:50:00.276Z,5.15
2024-04-30T21:52:27.271Z,7.30
2024-04-30T21:54:57.379Z,5.70
2024-04-30T21:57:26.159Z,6.78
2024-04-30T21:59:53.109Z,4.60
2024-04-30T22:02:23.756Z,7.18
2024-04-30T22:04:50.772Z,8.88
2024-04-30T22:07:21.212Z,4.47
2024-04-30T22:09:48.482Z,5.45
2024-04-30T22:12:15.549Z,7.60
2024-04-30T22:14:42.488Z,5.75
2024-04-30T22:17:09.419Z,4.18
2024-04-30T22:19:36.469Z,3.17
2024-04-30T22:22:03.600Z,3.63
2024-04-30T22:24:30.620Z,5.50
2024-04-30T22:26:57.589Z,6.32
2024-04-30T22:29:24.551Z,5.60
2024-04-30T22:31:52.108Z,4.43
2024-04-30T22:34:19.420Z,7.78
2024-04-30T22:36:48.611Z,5.40
2024-04-30T22:39:15.568Z,5.68
2024-04-30T22:41:42.503Z,3.13
2024-04-30T22:44:09.378Z,3.65
2024-04-30T22:46:36.359Z,3.08
2024-04-30T22:49:06.043Z,4.97
2024-04-30T22:51:33.085Z,6.78
2024-04-30T22:54:00.000Z,4.45
2024-04-30T22:56:27.510Z,7.30
2024-04-30T22:58:55.259Z,4.82
2024-04-30T23:01:22.311Z,7.80
2024-04-30T23:03:49.480Z,6.20
2024-04-30T23:06:16.476Z,5.50
2024-04-30T23:08:43.446Z,6.97
2024-04-30T23:11:10.384Z,7.25
2024-04-30T23:13:37.315Z,10.20
2024-04-30T23:16:04.578Z,6.72
2024-04-30T23:18:31.803Z,4.75
2024-04-30T23:21:01.216Z,5.15
2024-04-30T23:23:28.418Z,7.05
2024-04-30T23:25:55.314Z,4.35
2024-04-30T23:28:22.192Z,7.10
2024-04-30T23:30:49.182Z,6.82
2024-04-30T23:33:16.138Z,7.72
2024-04-30T23:35:43.076Z,4.93
2024-04-30T23:38:10.005Z,6.47
2024-04-30T23:40:36.927Z,7.50
2024-04-30T23:43:03.984Z,4.88
2024-04-30T23:45:31.020Z,5.43
2024-04-30T23:47:57.988Z,5.68
2024-04-30T23:50:24.922Z,4.20
2024-04-30T23:52:51.871Z,9.00
2024-04-30T23:55:20.879Z,5.93
2024-04-30T23:57:47.888Z,6.78
